Time;durP1;ratioP1;P1;durP2;ratioP2;P2;SDS_P1;SDS_P2;PMS_P1;PMS_P2;Temp;Humidity;BMP_temperature;BMP_pressure;BME280_temperature;BME280_humidity;BME280_pressure;Samples;Min_cycle;Max_cycle;Signal;HPM_P1;HPM_P2
2022/05/24 00:01:18;;;;;;;;;;;;;;;16.78;75.60;98910.63;6248533;22;1262;-91
2022/05/24 00:03:43;;;;;;;;;;;;;;;16.61;75.59;98920.09;6249027;22;850;-92
2022/05/24 00:06:09;;;;;;;;;;;;;;;16.63;75.40;98921.34;6248810;22;1007;-92
2022/05/24 00:08:34;;;;;;;;;;;;;;;16.50;75.90;98917.03;6249388;22;1914;-91
2022/05/24 00:10:59;;;;;;;;;;;;;;;16.59;74.81;98930.66;6248774;22;1239;-92
2022/05/24 00:13:24;;;;;;;;;;;;;;;16.42;76.36;98936.56;6249061;22;1324;-91
2022/05/24 00:15:50;;;;;;;;;;;;;;;16.56;74.78;98936.94;6276778;22;1026;-92
2022/05/24 00:18:17;;;;;;;;;;;;;;;16.47;75.40;98948.16;6249220;22;1217;-92
2022/05/24 00:20:45;;;;;;;;;;;;;;;16.66;74.12;98958.53;6249073;22;1253;-92
2022/05/24 00:23:10;;;;;;;;;;;;;;;16.81;73.75;98965.97;6275684;22;1003;-92
2022/05/24 00:25:37;;;;;;;;;;;;;;;16.76;73.57;98963.47;6249276;22;1151;-92
2022/05/24 00:28:03;;;;;;;;;;;;;;;16.87;73.83;98961.78;6248746;22;1182;-92
2022/05/24 00:30:29;;;;;;;;;;;;;;;16.86;73.62;98973.19;6247990;22;2023;-92
2022/05/24 00:32:54;;;;;;;;;;;;;;;17.04;72.64;98979.91;6248854;22;1296;-91
2022/05/24 00:35:20;;;;;;;;;;;;;;;17.08;73.64;98983.59;6249024;22;1280;-91
2022/05/24 00:37:46;;;;;;;;;;;;;;;17.39;71.68;98980.72;6276544;22;857;-91
2022/05/24 00:40:34;;;;;;;;;;;;;;;16.97;73.07;98993.59;6275411;22;1280;-91
2022/05/24 00:43:05;;;;;;;;;;;;;;;16.91;73.04;98998.59;6275891;22;964;-91
2022/05/24 00:45:33;;;;;;;;;;;;;;;16.52;74.42;98999.56;6275368;22;1015;-92
2022/05/24 00:48:01;;;;;;;;;;;;;;;16.27;74.57;98994.19;6248623;22;1340;-90
2022/05/24 00:50:31;;;;;;;;;;;;;;;16.21;75.33;98998.38;6248178;22;1876;-91
2022/05/24 00:53:01;;;;;;;;;;;;;;;16.14;73.78;98943.00;6248386;22;1274;-91
2022/05/24 00:55:28;;;;;;;;;;;;;;;16.14;74.06;99003.72;6249351;22;1162;-91
2022/05/24 00:58:05;;;;;;;;;;;;;;;16.24;74.17;99011.50;6275470;22;940;-91
2022/05/24 01:00:30;;;;;;;;;;;;;;;16.36;73.70;99015.31;6249408;22;1246;-91
2022/05/24 01:02:55;;;;;;;;;;;;;;;16.52;72.96;99014.16;6249551;22;1176;-90
2022/05/24 01:05:26;;;;;;;;;;;;;;;16.77;72.18;99017.59;6276697;22;1059;-90
2022/05/24 01:07:51;;;;;;;;;;;;;;;16.59;71.83;99013.53;6249398;22;1251;-91
2022/05/24 01:10:25;;;;;;;;;;;;;;;16.52;72.38;99021.66;6249408;22;1918;-91
2022/05/24 01:12:53;;;;;;;;;;;;;;;16.74;72.27;99029.38;6249503;22;1195;-91
2022/05/24 01:15:19;;;;;;;;;;;;;;;16.80;70.33;99036.22;6249862;22;1186;-91
2022/05/24 01:17:45;;;;;;;;;;;;;;;16.41;71.09;99028.88;6250950;22;1198;-91
2022/05/24 01:20:11;;;;;;;;;;;;;;;16.32;71.83;99017.19;6251605;22;1280;-91
2022/05/24 01:22:36;;;;;;;;;;;;;;;16.21;70.99;99028.75;6251849;22;1293;-91
2022/05/24 01:25:04;;;;;;;;;;;;;;;15.97;71.84;99031.66;6278692;22;1022;-91
2022/05/24 01:27:30;;;;;;;;;;;;;;;15.87;73.24;99021.09;6251557;22;1273;-92
2022/05/24 01:29:55;;;;;;;;;;;;;;;16.32;71.68;99031.00;6251418;22;1904;-92
2022/05/24 01:37:48;;;;;;;;;;;;;;;16.74;69.55;99034.91;6278796;22;604;-92
2022/05/24 01:40:13;;;;;;;;;;;;;;;16.37;70.67;99033.50;6251525;22;1247;-91
2022/05/24 01:42:39;;;;;;;;;;;;;;;16.47;70.14;99024.69;6251596;22;1202;-92
2022/05/24 01:45:11;;;;;;;;;;;;;;;16.32;71.45;99031.81;6246068;23;1328;-91
2022/05/24 01:47:38;;;;;;;;;;;;;;;16.39;71.37;99033.94;6247929;23;849;-91
2022/05/24 01:50:06;;;;;;;;;;;;;;;16.41;71.89;99035.22;6246557;23;1912;-91
2022/05/24 01:52:31;;;;;;;;;;;;;;;16.40;71.35;99035.56;6248992;23;984;-91
2022/05/24 01:55:00;;;;;;;;;;;;;;;16.16;72.41;99034.53;6247455;23;1189;-91
2022/05/24 01:57:27;;;;;;;;;;;;;;;16.20;71.45;99035.44;6248339;23;1183;-91
2022/05/24 01:59:55;;;;;;;;;;;;;;;16.86;69.92;99025.69;6249869;23;1326;-91
2022/05/24 02:02:20;;;;;;;;;;;;;;;16.54;69.95;99022.91;6248422;23;1307;-92
2022/05/24 02:04:45;;;;;;;;;;;;;;;16.82;69.78;99022.84;6247461;23;1293;-92
2022/05/24 02:07:18;;;;;;;;;;;;;;;16.49;70.13;99028.72;6249127;23;1122;-91
2022/05/24 02:09:47;;;;;;;;;;;;;;;16.16;70.96;99020.72;6250542;23;1918;-92
2022/05/24 02:12:12;;;;;;;;;;;;;;;16.43;71.26;99019.06;6248167;23;1035;-92
2022/05/24 02:14:39;;;;;;;;;;;;;;;16.36;70.68;99018.06;6246684;23;1172;-91
2022/05/24 02:17:08;;;;;;;;;;;;;;;16.06;71.26;99028.72;6246899;23;1310;-92
2022/05/24 02:19:36;;;;;;;;;;;;;;;16.10;72.00;99038.69;6247021;23;1289;-91
2022/05/24 02:22:03;;;;;;;;;;;;;;;15.94;72.87;99039.81;6247989;23;933;-91
2022/05/24 02:24:39;;;;;;;;;;;;;;;16.21;71.70;99030.72;6247423;23;1199;-92
2022/05/24 02:27:05;;;;;;;;;;;;;;;16.64;70.21;99032.66;6248575;23;1476;-91
2022/05/24 02:29:31;;;;;;;;;;;;;;;16.58;70.53;99031.31;6223945;23;1920;-92
2022/05/24 02:31:56;;;;;;;;;;;;;;;16.69;69.43;99026.84;6269026;22;1286;-92
2022/05/24 02:34:22;;;;;;;;;;;;;;;16.58;70.06;99015.53;6247134;23;1385;-92
2022/05/24 02:36:47;;;;;;;;;;;;;;;16.61;70.29;99016.78;6246816;23;1301;-91
2022/05/24 02:39:12;;;;;;;;;;;;;;;16.31;70.91;99021.91;6246140;23;1208;-92
2022/05/24 02:41:38;;;;;;;;;;;;;;;16.10;72.68;99027.66;6246169;23;1155;-91
2022/05/24 02:44:05;;;;;;;;;;;;;;;16.48;71.46;99029.06;6246012;23;1194;-92
2022/05/24 02:46:31;;;;;;;;;;;;;;;16.98;69.65;99033.88;6245991;23;1162;-92
2022/05/24 02:48:57;;;;;;;;;;;;;;;16.72;70.59;99039.97;6245778;23;1893;-92
2022/05/24 02:51:22;;;;;;;;;;;;;;;16.50;71.44;99037.81;6245876;23;1489;-92
2022/05/24 02:53:47;;;;;;;;;;;;;;;16.58;70.45;99031.31;6246467;23;1310;-92
2022/05/24 02:56:13;;;;;;;;;;;;;;;16.58;71.46;99036.81;6246207;23;1265;-92
2022/05/24 02:58:39;;;;;;;;;;;;;;;16.66;70.88;99040.59;6246151;23;1267;-92
2022/05/24 03:01:11;;;;;;;;;;;;;;;16.71;71.11;99043.09;6247933;23;1174;-91
2022/05/24 03:03:36;;;;;;;;;;;;;;;16.91;70.48;99044.78;6245959;23;1190;-92
2022/05/24 03:06:01;;;;;;;;;;;;;;;16.99;69.53;99039.06;6246004;23;1109;-91
2022/05/24 03:11:11;;;;;;;;;;;;;;;16.90;71.00;99040.41;6247284;23;1256;-91
2022/05/24 03:16:20;;;;;;;;;;;;;;;17.01;69.84;99042.25;6247858;23;629;-91
2022/05/24 03:18:45;;;;;;;;;;;;;;;16.93;70.88;99037.72;6246225;23;1320;-92
2022/05/24 03:21:11;;;;;;;;;;;;;;;16.83;70.05;99043.00;6246314;23;1359;-92
2022/05/24 03:23:36;;;;;;;;;;;;;;;16.67;71.09;99039.44;6220917;23;1431;-92
2022/05/24 03:26:01;;;;;;;;;;;;;;;16.60;71.42;99045.53;6246492;23;1209;-91
2022/05/24 03:28:27;;;;;;;;;;;;;;;16.76;71.30;99042.84;6247323;23;1904;-91
2022/05/24 03:30:52;;;;;;;;;;;;;;;16.94;70.95;99052.34;6249970;23;1286;-91
2022/05/24 03:33:17;;;;;;;;;;;;;;;16.82;70.89;99044.97;6248914;23;1147;-91
2022/05/24 03:35:42;;;;;;;;;;;;;;;16.55;71.11;99046.63;6245606;23;1351;-92
2022/05/24 03:38:08;;;;;;;;;;;;;;;16.45;71.04;99044.38;6245379;23;1290;-92
2022/05/24 03:40:33;;;;;;;;;;;;;;;16.54;70.95;99036.72;6245151;23;1139;-92
2022/05/24 03:42:59;;;;;;;;;;;;;;;16.75;70.58;99047.56;6244795;23;1426;-91
2022/05/24 03:45:24;;;;;;;;;;;;;;;16.84;70.59;99047.38;6244869;23;1284;-91
2022/05/24 03:47:50;;;;;;;;;;;;;;;16.29;72.60;99043.56;6245436;23;1134;-91
2022/05/24 04:21:10;;;;;;;;;;;;;;;16.74;71.77;99051.47;6247574;23;1241;-92
2022/05/24 04:23:36;;;;;;;;;;;;;;;16.97;72.35;99052.44;6223083;23;1251;-93
2022/05/24 04:26:03;;;;;;;;;;;;;;;17.06;71.81;99055.00;6201612;23;1286;-94
2022/05/24 04:28:28;;;;;;;;;;;;;;;17.17;70.47;99060.81;6193891;23;1210;-93
2022/05/24 04:30:53;;;;;;;;;;;;;;;17.14;69.92;99061.50;6193881;23;1303;-93
2022/05/24 04:33:19;;;;;;;;;;;;;;;16.85;69.79;99062.78;6191724;23;1236;-93
2022/05/24 04:35:44;;;;;;;;;;;;;;;16.76;72.15;99065.72;6191884;23;1241;-94
2022/05/24 04:38:09;;;;;;;;;;;;;;;16.92;71.73;99062.97;6192212;23;1167;-92
2022/05/24 04:43:36;;;;;;;;;;;;;;;17.16;70.63;99064.72;6217725;23;588;-93
2022/05/24 04:46:01;;;;;;;;;;;;;;;17.26;70.25;99059.44;6191428;23;1372;-93
2022/05/24 04:48:27;;;;;;;;;;;;;;;17.05;69.63;99060.91;6195127;23;1200;-93
2022/05/24 04:50:52;;;;;;;;;;;;;;;16.38;71.94;99062.72;6194159;23;1176;-93
2022/05/24 04:53:20;;;;;;;;;;;;;;;16.19;73.44;99057.88;6195322;23;1232;-93
2022/05/24 04:55:47;;;;;;;;;;;;;;;16.44;72.53;99066.81;6195883;23;1183;-94
2022/05/24 04:58:12;;;;;;;;;;;;;;;16.86;71.02;99064.38;6196311;23;1304;-93
2022/05/24 05:00:38;;;;;;;;;;;;;;;17.22;69.55;99063.28;6196695;23;1873;-93
2022/05/24 05:03:10;;;;;;;;;;;;;;;17.38;69.50;99066.81;6193962;23;1319;-94
2022/05/24 05:05:38;;;;;;;;;;;;;;;17.19;70.09;99069.53;6194494;23;1509;-93
2022/05/24 05:08:04;;;;;;;;;;;;;;;16.98;70.73;99069.81;6194689;23;1322;-93
2022/05/24 05:10:34;;;;;;;;;;;;;;;17.06;71.70;99077.13;6194451;23;1270;-93
2022/05/24 05:12:59;;;;;;;;;;;;;;;16.80;72.09;99068.56;6193978;23;1363;-92
2022/05/24 05:15:24;;;;;;;;;;;;;;;17.21;71.17;99081.03;6193098;23;1338;-92
2022/05/24 05:17:51;;;;;;;;;;;;;;;17.64;70.18;99075.34;6192442;23;1254;-92
2022/05/24 05:20:16;;;;;;;;;;;;;;;17.29;71.97;99080.03;6208084;23;1923;-93
2022/05/24 05:22:41;;;;;;;;;;;;;;;17.11;71.81;99085.13;6221181;23;1304;-93
2022/05/24 05:25:07;;;;;;;;;;;;;;;17.40;71.26;99084.66;6218365;23;1339;-93
2022/05/24 05:27:32;;;;;;;;;;;;;;;17.06;70.10;99082.66;6218098;23;1310;-92
2022/05/24 13:57:05;;;;;;;;;;;;;;;25.12;31.25;99544.84;6237221;22;1554;-90
2022/05/24 13:59:31;;;;;;;;;;;;;;;25.09;32.55;99534.44;6254450;23;1877;-88
2022/05/24 14:02:06;;;;;;;;;;;;;;;26.06;31.18;99532.16;6224736;23;1191;-88
2022/05/24 14:04:36;;;;;;;;;;;;;;;23.91;34.52;99532.59;6247833;23;774;-89
2022/05/24 14:07:04;;;;;;;;;;;;;;;21.84;37.09;99537.63;6247245;22;1207;-88
2022/05/24 14:09:31;;;;;;;;;;;;;;;21.74;37.90;99537.50;6248038;23;864;-89
2022/05/24 14:11:58;;;;;;;;;;;;;;;21.59;38.03;99530.16;6220861;23;1204;-89
2022/05/24 14:14:24;;;;;;;;;;;;;;;21.92;39.38;99526.56;6220800;23;1279;-89
2022/05/24 14:16:50;;;;;;;;;;;;;;;21.59;39.80;99539.31;6220657;23;1266;-88
2022/05/24 14:19:15;;;;;;;;;;;;;;;21.56;40.68;99536.47;6247602;23;1880;-88
2022/05/24 14:21:41;;;;;;;;;;;;;;;21.40;40.42;99540.22;6220574;23;1180;-90
2022/05/24 14:24:13;;;;;;;;;;;;;;;20.82;40.29;99550.03;6220312;23;1322;-90
2022/05/24 14:26:42;;;;;;;;;;;;;;;20.43;42.58;99561.25;6247391;22;1348;-90
2022/05/24 14:29:08;;;;;;;;;;;;;;;20.19;41.62;99559.59;6220748;23;1284;-88
2022/05/24 14:31:33;;;;;;;;;;;;;;;19.49;44.11;99556.94;6248501;23;790;-89
2022/05/24 14:33:58;;;;;;;;;;;;;;;19.79;43.87;99571.09;6220447;23;1369;-90
2022/05/24 14:36:24;;;;;;;;;;;;;;;19.74;43.20;99565.81;6221084;23;1262;-88
2022/05/24 14:38:49;;;;;;;;;;;;;;;19.87;44.53;99570.06;6251098;23;1924;-88
2022/05/24 14:41:17;;;;;;;;;;;;;;;20.54;43.72;99576.16;6224319;23;1262;-89
2022/05/24 14:43:45;;;;;;;;;;;;;;;20.38;41.56;99587.41;6246795;23;931;-87
2022/05/24 14:46:10;;;;;;;;;;;;;;;20.22;42.47;99583.88;6220709;23;1314;-88
2022/05/24 14:48:35;;;;;;;;;;;;;;;20.49;41.88;99595.94;6220151;23;1223;-90
2022/05/24 14:51:00;;;;;;;;;;;;;;;20.86;41.61;99592.59;6220408;23;1314;-90
2022/05/24 14:53:27;;;;;;;;;;;;;;;21.14;43.43;99596.66;6220164;23;1349;-89
2022/05/24 14:55:52;;;;;;;;;;;;;;;21.70;41.32;99595.13;6219852;23;1251;-87
2022/05/24 14:58:17;;;;;;;;;;;;;;;21.34;41.42;99599.41;6247037;23;764;-88
2022/05/24 15:00:42;;;;;;;;;;;;;;;20.98;41.16;99598.78;6220122;23;1884;-88
2022/05/24 15:03:07;;;;;;;;;;;;;;;20.47;41.75;99603.84;6219692;23;1016;-89
2022/05/24 15:05:33;;;;;;;;;;;;;;;20.10;43.21;99594.31;6246725;22;1224;-88
2022/05/24 15:16:16;;;;;;;;;;;;;;;20.54;44.57;99617.06;6247016;22;1223;-89
2022/05/24 15:18:42;;;;;;;;;;;;;;;20.26;43.83;99611.72;6220256;23;1916;-89
2022/05/24 15:21:07;;;;;;;;;;;;;;;20.67;43.23;99619.28;6219609;23;1094;-87
2022/05/24 15:23:33;;;;;;;;;;;;;;;20.62;44.39;99616.81;6219716;23;1199;-88
2022/05/24 15:26:03;;;;;;;;;;;;;;;20.76;44.22;99611.50;6219639;23;1274;-89
2022/05/24 15:28:30;;;;;;;;;;;;;;;20.47;42.37;99617.75;6220005;23;1155;-89
2022/05/24 15:30:55;;;;;;;;;;;;;;;20.06;43.68;99621.25;6219873;23;1179;-89
2022/05/24 15:33:20;;;;;;;;;;;;;;;20.35;42.68;99615.09;6219516;23;1216;-89
2022/05/24 15:35:46;;;;;;;;;;;;;;;20.10;43.29;99616.56;6219063;23;1255;-89
2022/05/24 15:38:11;;;;;;;;;;;;;;;20.44;44.65;99621.25;6247116;23;1031;-88
2022/05/24 15:40:36;;;;;;;;;;;;;;;19.84;42.39;99612.44;6219525;23;1893;-87
2022/05/24 15:43:03;;;;;;;;;;;;;;;20.32;42.88;99622.19;6219659;23;1165;-88
2022/05/24 15:45:28;;;;;;;;;;;;;;;20.39;43.92;99616.81;6219136;23;1350;-88
2022/05/24 15:47:53;;;;;;;;;;;;;;;20.67;42.76;99626.84;6219674;23;1330;-88
2022/05/24 15:50:18;;;;;;;;;;;;;;;21.22;42.30;99621.84;6246780;23;1030;-89
2022/05/24 15:52:44;;;;;;;;;;;;;;;21.12;43.31;99624.06;6219702;23;1233;-88
2022/05/24 15:55:10;;;;;;;;;;;;;;;20.72;42.94;99626.53;6246164;22;1285;-87
2022/05/24 15:57:35;;;;;;;;;;;;;;;21.03;43.20;99622.69;6219501;23;1203;-90
2022/05/24 16:00:00;;;;;;;;;;;;;;;20.38;43.39;99626.31;6219356;23;1948;-89
2022/05/24 16:02:25;;;;;;;;;;;;;;;20.21;42.87;99626.72;6220050;23;1076;-89
2022/05/24 16:10:20;;;;;;;;;;;;;;;21.01;42.65;99630.66;6253665;23;631;-89
2022/05/24 16:12:47;;;;;;;;;;;;;;;20.92;42.55;99633.66;6226244;23;1167;-89
2022/05/24 16:15:14;;;;;;;;;;;;;;;20.56;42.22;99632.22;6218626;22;1534;-87
2022/05/24 16:17:39;;;;;;;;;;;;;;;20.90;41.83;99627.66;6219920;23;1381;-88
2022/05/24 16:20:06;;;;;;;;;;;;;;;21.03;44.81;99629.06;6219390;23;1888;-88
2022/05/24 16:22:32;;;;;;;;;;;;;;;21.04;45.65;99641.00;6246334;23;1138;-88
2022/05/24 16:24:58;;;;;;;;;;;;;;;20.25;43.16;99649.81;6246313;22;1191;-89
2022/05/24 16:27:24;;;;;;;;;;;;;;;19.81;43.85;99649.28;6219304;23;1262;-89
2022/05/24 16:29:50;;;;;;;;;;;;;;;20.09;43.01;99653.84;6246474;23;854;-88
2022/05/24 16:32:15;;;;;;;;;;;;;;;20.16;44.60;99651.22;6219552;23;866;-88
2022/05/24 16:34:40;;;;;;;;;;;;;;;19.79;44.06;99661.91;6219521;23;862;-90
2022/05/24 16:37:06;;;;;;;;;;;;;;;20.34;42.72;99655.19;6219742;23;1169;-89
2022/05/24 16:39:31;;;;;;;;;;;;;;;20.10;43.95;99658.22;6219434;23;1893;-88
2022/05/24 16:41:56;;;;;;;;;;;;;;;19.97;44.11;99661.16;6219067;23;1160;-88
2022/05/24 16:44:21;;;;;;;;;;;;;;;19.76;45.57;99665.41;6218726;23;1003;-88
2022/05/24 16:46:47;;;;;;;;;;;;;;;19.80;45.81;99667.13;6219059;23;1259;-86
2022/05/24 16:49:12;;;;;;;;;;;;;;;19.94;43.17;99666.63;6221338;23;1362;-89
2022/05/24 16:51:39;;;;;;;;;;;;;;;19.67;43.70;99667.59;6248403;23;905;-89
2022/05/24 16:59:33;;;;;;;;;;;;;;;19.28;45.11;99676.56;6248430;23;1926;-87
2022/05/24 17:01:58;;;;;;;;;;;;;;;19.68;45.60;99677.53;6221061;23;1199;-90
2022/05/24 17:04:23;;;;;;;;;;;;;;;19.81;45.54;99676.25;6221190;23;781;-89
2022/05/24 17:06:48;;;;;;;;;;;;;;;19.61;44.60;99684.53;6248110;22;1199;-89
2022/05/24 17:09:15;;;;;;;;;;;;;;;19.52;43.12;99683.09;6221744;23;953;-88
2022/05/24 17:11:40;;;;;;;;;;;;;;;19.39;43.67;99696.25;6221606;23;1203;-88
2022/05/24 17:14:06;;;;;;;;;;;;;;;19.09;44.23;99701.44;6248213;23;766;-87
2022/05/24 17:16:31;;;;;;;;;;;;;;;18.96;46.43;99705.47;6220947;23;1273;-89
2022/05/24 17:18:56;;;;;;;;;;;;;;;18.69;46.01;99704.31;6247286;23;1872;-86
2022/05/24 17:21:21;;;;;;;;;;;;;;;18.86;47.50;99705.97;6220580;23;843;-89
2022/05/24 17:23:46;;;;;;;;;;;;;;;18.69;47.02;99717.38;6219219;23;1009;-86
2022/05/24 17:26:12;;;;;;;;;;;;;;;18.42;47.18;99735.56;6220812;23;1267;-88
2022/05/24 17:28:37;;;;;;;;;;;;;;;18.24;47.40;99740.59;6221299;23;1310;-89
2022/05/24 17:31:04;;;;;;;;;;;;;;;18.33;47.88;99738.50;6247889;23;1031;-89
2022/05/24 17:33:29;;;;;;;;;;;;;;;18.29;45.50;99753.41;6220912;23;1263;-88
2022/05/24 17:35:55;;;;;;;;;;;;;;;17.83;48.59;99763.03;6247838;22;1179;-89
2022/05/24 17:38:20;;;;;;;;;;;;;;;18.20;48.29;99774.91;6247721;23;965;-86
2022/05/24 17:40:47;;;;;;;;;;;;;;;17.84;47.87;99775.72;6247411;23;1884;-88
2022/05/24 17:43:14;;;;;;;;;;;;;;;18.07;48.98;99766.59;6220711;23;1183;-87
2022/05/24 17:45:39;;;;;;;;;;;;;;;18.77;47.97;99758.81;6221094;23;1382;-87
2022/05/24 17:48:06;;;;;;;;;;;;;;;18.39;49.49;99763.97;6220610;23;1336;-88
2022/05/24 17:50:32;;;;;;;;;;;;;;;18.66;49.82;99762.44;6220392;23;1203;-87
2022/05/24 17:52:57;;;;;;;;;;;;;;;18.97;49.03;99770.81;6219987;23;1271;-87
2022/05/24 17:55:22;;;;;;;;;;;;;;;19.08;47.12;99768.34;6218773;23;1302;-86
2022/05/24 17:57:48;;;;;;;;;;;;;;;19.02;50.66;99776.13;6219411;23;1190;-89
2022/05/24 18:00:13;;;;;;;;;;;;;;;18.66;48.50;99773.50;6219142;23;1932;-89
2022/05/24 18:02:39;;;;;;;;;;;;;;;18.47;49.86;99794.31;6246223;23;1186;-89
2022/05/24 18:05:05;;;;;;;;;;;;;;;18.60;52.53;99791.56;6219671;22;1500;-87
2022/05/24 18:07:30;;;;;;;;;;;;;;;19.04;49.35;99790.47;6219896;23;1448;-87
2022/05/24 18:09:56;;;;;;;;;;;;;;;18.73;48.95;99793.94;6246076;23;1015;-88
2022/05/24 18:12:21;;;;;;;;;;;;;;;18.29;50.12;99797.72;6221669;23;1155;-88
2022/05/24 18:14:46;;;;;;;;;;;;;;;18.28;48.69;99816.31;6249517;23;1015;-88
2022/05/24 18:17:11;;;;;;;;;;;;;;;18.41;47.86;99817.09;6220882;23;1164;-87
2022/05/24 18:19:37;;;;;;;;;;;;;;;18.79;47.90;99809.19;6219361;23;1922;-89
2022/05/24 18:22:07;;;;;;;;;;;;;;;18.79;50.16;99820.28;6217647;23;1309;-88
2022/05/24 18:24:36;;;;;;;;;;;;;;;18.80;52.35;99816.31;6219917;23;1191;-89
2022/05/24 18:35:19;;;;;;;;;;;;;;;19.03;50.80;99822.13;6246171;22;1238;-88
2022/05/24 18:37:44;;;;;;;;;;;;;;;18.85;51.17;99818.84;6246233;23;988;-89
2022/05/24 18:40:10;;;;;;;;;;;;;;;18.12;53.05;99832.81;6219173;23;1889;-87
2022/05/24 18:42:37;;;;;;;;;;;;;;;17.87;53.94;99830.38;6246140;23;854;-88
2022/05/24 18:45:02;;;;;;;;;;;;;;;18.41;52.86;99831.75;6218539;22;1315;-88
2022/05/24 18:47:28;;;;;;;;;;;;;;;18.24;53.04;99840.31;6221541;23;1262;-88
2022/05/24 18:49:53;;;;;;;;;;;;;;;18.32;52.08;99844.13;6224967;23;1171;-89
2022/05/24 18:52:18;;;;;;;;;;;;;;;18.64;52.48;99847.91;6225331;23;1183;-88
2022/05/24 18:54:43;;;;;;;;;;;;;;;18.43;51.26;99848.03;6251472;23;904;-89
2022/05/24 18:57:08;;;;;;;;;;;;;;;17.99;54.38;99850.59;6222887;23;1267;-88
2022/05/24 18:59:35;;;;;;;;;;;;;;;17.94;53.82;99844.50;6223606;23;1888;-89
2022/05/24 19:02:01;;;;;;;;;;;;;;;17.86;54.47;99843.44;6225395;23;1177;-89
2022/05/24 19:04:28;;;;;;;;;;;;;;;17.78;54.02;99849.88;6227076;23;1222;-88
2022/05/24 19:09:38;;;;;;;;;;;;;;;17.36;56.14;99855.53;6251945;23;692;-89
2022/05/24 19:12:04;;;;;;;;;;;;;;;17.22;57.71;99857.78;6224061;23;1362;-89
2022/05/24 19:14:31;;;;;;;;;;;;;;;17.12;58.04;99866.50;6219097;23;1128;-89
2022/05/24 19:16:56;;;;;;;;;;;;;;;16.66;59.13;99873.09;6219617;23;1247;-89
2022/05/24 19:19:21;;;;;;;;;;;;;;;16.44;59.72;99876.91;6219239;23;1888;-87
2022/05/24 19:21:46;;;;;;;;;;;;;;;16.71;59.71;99875.63;6244257;23;1067;-88
2022/05/24 19:24:12;;;;;;;;;;;;;;;16.70;59.07;99882.31;6219213;23;985;-88
2022/05/24 19:26:37;;;;;;;;;;;;;;;16.67;58.72;99884.94;6219446;23;1208;-87
2022/05/24 19:29:02;;;;;;;;;;;;;;;16.46;59.76;99887.63;6219013;23;1250;-87
2022/05/24 19:31:27;;;;;;;;;;;;;;;15.88;60.95;99887.28;6218867;23;1274;-86
2022/05/24 19:33:53;;;;;;;;;;;;;;;16.07;60.41;99886.88;6219467;23;1156;-87
2022/05/24 19:36:18;;;;;;;;;;;;;;;16.42;59.24;99884.72;6218982;23;1293;-87
2022/05/24 19:41:43;;;;;;;;;;;;;;;16.73;58.76;99887.16;6246187;23;627;-86
2022/05/24 19:44:10;;;;;;;;;;;;;;;16.85;57.70;99892.75;6218367;23;1203;-87
2022/05/24 19:46:35;;;;;;;;;;;;;;;16.93;57.74;99893.81;6218914;23;1262;-87
2022/05/24 19:49:00;;;;;;;;;;;;;;;17.09;57.73;99902.34;6219857;23;1159;-87
2022/05/24 19:51:26;;;;;;;;;;;;;;;16.73;58.34;99898.22;6219900;23;897;-87
2022/05/24 19:53:52;;;;;;;;;;;;;;;17.10;56.66;99906.72;6245412;23;992;-87
2022/05/24 19:56:17;;;;;;;;;;;;;;;17.27;55.26;99910.13;6246251;22;1259;-87
2022/05/24 19:58:46;;;;;;;;;;;;;;;17.02;57.34;99911.16;6219245;23;1897;-88
2022/05/24 20:01:11;;;;;;;;;;;;;;;17.11;57.27;99919.38;6218478;23;1199;-87
2022/05/24 20:03:38;;;;;;;;;;;;;;;16.18;60.77;99929.53;6218310;23;1247;-87
2022/05/24 20:06:03;;;;;;;;;;;;;;;16.05;61.82;99919.53;6219495;23;1326;-87
2022/05/24 20:08:28;;;;;;;;;;;;;;;16.51;59.70;99926.09;6245701;23;778;-87
2022/05/24 20:10:53;;;;;;;;;;;;;;;16.62;58.72;99930.97;6218921;23;988;-86
2022/05/24 20:13:20;;;;;;;;;;;;;;;15.41;62.43;99940.75;6218215;23;1122;-87
2022/05/24 20:15:45;;;;;;;;;;;;;;;14.93;67.04;99935.41;6218901;23;1282;-87
2022/05/24 20:18:10;;;;;;;;;;;;;;;15.14;65.70;99945.47;6219311;23;1302;-86
2022/05/24 20:20:35;;;;;;;;;;;;;;;15.84;62.91;99941.50;6242975;23;1884;-87
2022/05/24 20:23:01;;;;;;;;;;;;;;;15.71;63.40;99944.47;6218562;23;806;-87
2022/05/24 20:25:26;;;;;;;;;;;;;;;15.92;63.14;99950.09;6218295;23;1301;-87
2022/05/24 20:27:51;;;;;;;;;;;;;;;16.20;62.12;99943.81;6218562;23;976;-88
2022/05/24 20:30:16;;;;;;;;;;;;;;;15.63;63.04;99937.84;6219251;23;1329;-87
2022/05/24 20:32:51;;;;;;;;;;;;;;;15.68;63.06;99939.59;6219353;23;1008;-88
2022/05/24 20:35:16;;;;;;;;;;;;;;;14.47;67.51;99939.53;6218962;22;1259;-87
2022/05/24 20:37:41;;;;;;;;;;;;;;;14.37;67.39;99942.56;6245902;23;798;-87
2022/05/24 20:40:07;;;;;;;;;;;;;;;14.31;67.49;99943.81;6219254;23;1893;-87
2022/05/24 20:42:33;;;;;;;;;;;;;;;14.34;67.25;99948.72;6219456;23;1227;-87
2022/05/24 20:44:59;;;;;;;;;;;;;;;14.67;66.96;99951.91;6217871;22;1277;-87
2022/05/24 20:47:24;;;;;;;;;;;;;;;14.99;65.20;99942.38;6218795;23;1223;-87
2022/05/24 20:49:52;;;;;;;;;;;;;;;15.15;64.91;99944.31;6251792;22;1923;-91
2022/05/24 20:55:06;;;;;;;;;;;;;;;14.81;66.64;99944.31;6265234;22;1178;-91
2022/05/24 20:57:32;;;;;;;;;;;;;;;14.28;67.90;99947.25;6250078;22;1203;-90
2022/05/24 20:59:57;;;;;;;;;;;;;;;14.34;68.50;99951.47;6250543;22;1945;-88
2022/05/24 21:02:22;;;;;;;;;;;;;;;14.83;66.83;99949.50;6250722;22;897;-89
2022/05/24 21:04:53;;;;;;;;;;;;;;;14.36;67.85;99954.72;6250770;22;1270;-88
2022/05/24 21:07:22;;;;;;;;;;;;;;;13.71;70.07;99962.78;6250898;22;1222;-90
2022/05/24 21:09:48;;;;;;;;;;;;;;;13.46;71.21;99965.06;6277428;22;1151;-90
2022/05/24 21:12:14;;;;;;;;;;;;;;;13.69;71.05;99974.13;6250180;22;1182;-90
2022/05/24 21:14:40;;;;;;;;;;;;;;;13.95;69.45;99969.56;6250416;22;1448;-87
2022/05/24 21:17:31;;;;;;;;;;;;;;;13.57;71.43;99965.63;6250432;22;1188;-90
2022/05/24 21:19:57;;;;;;;;;;;;;;;13.77;70.03;99976.13;6276600;22;1928;-88
2022/05/24 21:22:23;;;;;;;;;;;;;;;14.16;68.87;99974.53;6277537;22;833;-88
2022/05/24 21:28:01;;;;;;;;;;;;;;;14.32;66.93;99981.25;6250207;22;1379;-89
2022/05/24 21:30:18;;;;;;;;;;;;;;;13.60;69.27;99981.53;6277276;22;1278;-87
2022/05/24 21:32:54;;;;;;;;;;;;;;;13.61;69.17;99983.94;6250206;22;1339;-88
2022/05/24 21:35:19;;;;;;;;;;;;;;;13.82;69.29;99989.75;6252825;22;1291;-88
2022/05/24 21:37:44;;;;;;;;;;;;;;;14.35;67.41;99989.69;6252128;22;1368;-89
2022/05/24 21:40:10;;;;;;;;;;;;;;;13.94;69.04;99991.94;6251711;22;1880;-88
2022/05/24 21:42:35;;;;;;;;;;;;;;;13.76;68.82;99999.25;6252117;22;1259;-88
2022/05/24 21:45:00;;;;;;;;;;;;;;;13.29;70.41;100008.09;6252020;22;1034;-88
2022/05/24 21:47:25;;;;;;;;;;;;;;;13.70;69.09;100005.19;6252044;22;905;-88
2022/05/24 21:49:50;;;;;;;;;;;;;;;14.14;67.45;100010.63;6252027;22;1366;-88
2022/05/24 21:52:15;;;;;;;;;;;;;;;14.07;67.01;100014.97;6252015;22;1316;-89
2022/05/24 21:54:41;;;;;;;;;;;;;;;13.87;68.78;100010.78;6278749;22;888;-87
2022/05/24 21:57:07;;;;;;;;;;;;;;;13.84;68.80;100026.00;6251936;22;995;-87
2022/05/24 21:59:36;;;;;;;;;;;;;;;13.68;67.40;100030.28;6278663;22;1892;-88
2022/05/24 22:02:03;;;;;;;;;;;;;;;13.20;68.79;100032.75;6278589;22;861;-89
2022/05/24 22:04:28;;;;;;;;;;;;;;;12.78;70.98;100036.66;6278621;22;841;-88
2022/05/24 22:06:55;;;;;;;;;;;;;;;12.52;71.28;99979.53;6251651;22;857;-88
2022/05/24 22:09:20;;;;;;;;;;;;;;;13.35;69.71;100043.44;6251567;22;1343;-89
2022/05/24 22:11:45;;;;;;;;;;;;;;;12.75;70.96;100043.59;6278700;22;1015;-88
2022/05/24 22:14:11;;;;;;;;;;;;;;;12.76;70.06;100049.91;6278574;22;841;-89
2022/05/24 22:16:39;;;;;;;;;;;;;;;12.47;71.72;100053.75;6251590;22;1360;-89
2022/05/24 22:19:04;;;;;;;;;;;;;;;13.08;69.66;100058.00;6278444;22;1939;-89
2022/05/24 22:21:29;;;;;;;;;;;;;;;13.21;69.98;100059.94;6251472;22;1187;-88
2022/05/24 22:23:54;;;;;;;;;;;;;;;13.75;67.89;100060.91;6251577;22;1373;-89
2022/05/24 22:26:20;;;;;;;;;;;;;;;13.92;68.56;100049.19;6251721;22;985;-88
2022/05/24 22:28:46;;;;;;;;;;;;;;;13.48;68.91;100050.81;6278688;22;1019;-88
2022/05/24 22:31:12;;;;;;;;;;;;;;;13.99;69.04;100050.38;6278517;22;1234;-88
2022/05/24 22:33:39;;;;;;;;;;;;;;;13.80;70.73;100052.50;6251010;22;1445;-88
2022/05/24 22:36:05;;;;;;;;;;;;;;;14.33;68.43;100059.97;6278711;22;832;-89
2022/05/24 22:38:32;;;;;;;;;;;;;;;14.57;68.52;100057.69;6278403;22;912;-87
2022/05/24 22:41:04;;;;;;;;;;;;;;;14.24;69.44;100065.41;6278475;22;1930;-87
2022/05/24 22:43:29;;;;;;;;;;;;;;;14.51;69.46;100055.38;6250880;22;1259;-88